sensor_id;sensor_type;location;lat;lon;timestamp;temperature;humidity
9965;DHT22;5023;53.554;9.964;2023-04-24T00:01:25;13.20;99.90
9965;DHT22;5023;53.554;9.964;2023-04-24T00:06:27;13.20;99.90
9965;DHT22;5023;53.554;9.964;2023-04-24T00:11:35;13.10;99.90
9965;DHT22;5023;53.554;9.964;2023-04-24T00:16:37;13.00;99.90
9965;DHT22;5023;53.554;9.964;2023-04-24T00:21:39;13.00;99.90
9965;DHT22;5023;53.554;9.964;2023-04-24T00:26:42;13.10;99.90
9965;DHT22;5023;53.554;9.964;2023-04-24T00:31:44;13.00;99.90
9965;DHT22;5023;53.554;9.964;2023-04-24T00:36:46;13.00;99.90
9965;DHT22;5023;53.554;9.964;2023-04-24T00:41:52;13.00;99.90
9965;DHT22;5023;53.554;9.964;2023-04-24T00:46:55;13.00;99.90
9965;DHT22;5023;53.554;9.964;2023-04-24T00:51:58;12.90;99.90
9965;DHT22;5023;53.554;9.964;2023-04-24T00:57:02;12.90;99.90
9965;DHT22;5023;53.554;9.964;2023-04-24T01:02:04;12.90;99.90
9965;DHT22;5023;53.554;9.964;2023-04-24T01:07:06;12.90;99.90
9965;DHT22;5023;53.554;9.964;2023-04-24T01:12:12;12.80;99.90
9965;DHT22;5023;53.554;9.964;2023-04-24T01:17:14;12.70;99.90
9965;DHT22;5023;53.554;9.964;2023-04-24T01:22:17;12.70;99.90
9965;DHT22;5023;53.554;9.964;2023-04-24T01:27:19;12.70;99.90
9965;DHT22;5023;53.554;9.964;2023-04-24T01:32:21;12.60;99.90
9965;DHT22;5023;53.554;9.964;2023-04-24T01:37:25;12.50;99.90
9965;DHT22;5023;53.554;9.964;2023-04-24T01:42:27;12.60;99.90
9965;DHT22;5023;53.554;9.964;2023-04-24T01:47:30;12.60;99.90
9965;DHT22;5023;53.554;9.964;2023-04-24T01:52:34;12.60;99.90
9965;DHT22;5023;53.554;9.964;2023-04-24T01:57:36;12.60;99.90
9965;DHT22;5023;53.554;9.964;2023-04-24T02:02:39;12.60;99.90
9965;DHT22;5023;53.554;9.964;2023-04-24T02:07:43;12.70;99.90
9965;DHT22;5023;53.554;9.964;2023-04-24T02:12:45;12.60;99.90
9965;DHT22;5023;53.554;9.964;2023-04-24T02:17:46;12.60;99.90
9965;DHT22;5023;53.554;9.964;2023-04-24T02:22:50;12.60;99.90
9965;DHT22;5023;53.554;9.964;2023-04-24T02:27:52;12.50;99.90
9965;DHT22;5023;53.554;9.964;2023-04-24T02:32:54;12.50;99.90
9965;DHT22;5023;53.554;9.964;2023-04-24T02:37:57;12.50;99.90
9965;DHT22;5023;53.554;9.964;2023-04-24T02:42:59;12.50;99.90
9965;DHT22;5023;53.554;9.964;2023-04-24T02:48:01;12.40;99.90
9965;DHT22;5023;53.554;9.964;2023-04-24T02:53:04;12.40;99.90
9965;DHT22;5023;53.554;9.964;2023-04-24T02:58:06;12.40;99.90
9965;DHT22;5023;53.554;9.964;2023-04-24T03:03:08;12.30;99.90
9965;DHT22;5023;53.554;9.964;2023-04-24T03:08:11;12.20;99.90
9965;DHT22;5023;53.554;9.964;2023-04-24T03:13:13;12.10;99.90
9965;DHT22;5023;53.554;9.964;2023-04-24T03:18:15;12.00;99.90
9965;DHT22;5023;53.554;9.964;2023-04-24T03:23:18;12.10;99.90
9965;DHT22;5023;53.554;9.964;2023-04-24T03:28:20;12.10;99.90
9965;DHT22;5023;53.554;9.964;2023-04-24T03:33:22;12.00;99.90
9965;DHT22;5023;53.554;9.964;2023-04-24T03:38:25;11.90;99.90
9965;DHT22;5023;53.554;9.964;2023-04-24T03:43:27;11.90;99.90
9965;DHT22;5023;53.554;9.964;2023-04-24T03:48:29;11.80;99.90
9965;DHT22;5023;53.554;9.964;2023-04-24T03:53:32;11.70;99.90
9965;DHT22;5023;53.554;9.964;2023-04-24T03:58:34;11.60;99.90
9965;DHT22;5023;53.554;9.964;2023-04-24T04:03:36;11.60;99.90
9965;DHT22;5023;53.554;9.964;2023-04-24T04:08:39;11.60;99.90
9965;DHT22;5023;53.554;9.964;2023-04-24T04:13:41;11.50;99.90
9965;DHT22;5023;53.554;9.964;2023-04-24T04:18:43;11.50;99.90
9965;DHT22;5023;53.554;9.964;2023-04-24T04:23:46;11.50;99.90
9965;DHT22;5023;53.554;9.964;2023-04-24T04:28:48;11.50;99.90
9965;DHT22;5023;53.554;9.964;2023-04-24T04:33:50;11.50;99.90
9965;DHT22;5023;53.554;9.964;2023-04-24T04:38:53;11.50;99.90
9965;DHT22;5023;53.554;9.964;2023-04-24T04:43:55;11.50;99.90
9965;DHT22;5023;53.554;9.964;2023-04-24T04:48:59;11.50;99.90
9965;DHT22;5023;53.554;9.964;2023-04-24T04:54:03;11.60;99.90
9965;DHT22;5023;53.554;9.964;2023-04-24T04:59:05;11.60;99.90
9965;DHT22;5023;53.554;9.964;2023-04-24T05:04:07;11.60;99.90
9965;DHT22;5023;53.554;9.964;2023-04-24T05:09:10;11.70;99.90
9965;DHT22;5023;53.554;9.964;2023-04-24T05:14:12;11.60;99.90
9965;DHT22;5023;53.554;9.964;2023-04-24T05:19:14;11.70;99.90
9965;DHT22;5023;53.554;9.964;2023-04-24T05:24:17;11.70;99.90
9965;DHT22;5023;53.554;9.964;2023-04-24T05:29:19;11.70;99.90
9965;DHT22;5023;53.554;9.964;2023-04-24T05:34:22;11.70;99.90
9965;DHT22;5023;53.554;9.964;2023-04-24T05:39:25;11.80;99.90
9965;DHT22;5023;53.554;9.964;2023-04-24T05:44:27;11.90;99.90
9965;DHT22;5023;53.554;9.964;2023-04-24T05:49:29;11.90;99.90
9965;DHT22;5023;53.554;9.964;2023-04-24T05:54:32;11.90;99.90
9965;DHT22;5023;53.554;9.964;2023-04-24T05:59:35;11.90;99.90
9965;DHT22;5023;53.554;9.964;2023-04-24T06:04:37;12.00;99.90
9965;DHT22;5023;53.554;9.964;2023-04-24T06:09:41;12.00;99.90
9965;DHT22;5023;53.554;9.964;2023-04-24T06:14:43;12.00;99.90
9965;DHT22;5023;53.554;9.964;2023-04-24T06:19:45;12.10;99.90
9965;DHT22;5023;53.554;9.964;2023-04-24T06:24:48;12.20;99.90
9965;DHT22;5023;53.554;9.964;2023-04-24T06:29:50;12.30;99.90
9965;DHT22;5023;53.554;9.964;2023-04-24T06:34:55;12.40;99.90
9965;DHT22;5023;53.554;9.964;2023-04-24T06:39:58;12.40;99.90
9965;DHT22;5023;53.554;9.964;2023-04-24T06:45:00;12.50;99.90
9965;DHT22;5023;53.554;9.964;2023-04-24T06:50:02;12.60;99.90
9965;DHT22;5023;53.554;9.964;2023-04-24T06:55:07;12.60;99.90
9965;DHT22;5023;53.554;9.964;2023-04-24T07:00:10;12.70;99.90
9965;DHT22;5023;53.554;9.964;2023-04-24T07:05:12;12.80;99.90
9965;DHT22;5023;53.554;9.964;2023-04-24T07:10:17;12.90;99.90
9965;DHT22;5023;53.554;9.964;2023-04-24T07:15:20;13.00;99.90
9965;DHT22;5023;53.554;9.964;2023-04-24T07:20:22;13.20;99.90
9965;DHT22;5023;53.554;9.964;2023-04-24T07:25:26;13.20;99.90
9965;DHT22;5023;53.554;9.964;2023-04-24T07:30:28;13.30;99.90
9965;DHT22;5023;53.554;9.964;2023-04-24T07:35:30;13.40;99.90
9965;DHT22;5023;53.554;9.964;2023-04-24T07:40:33;13.40;99.90
9965;DHT22;5023;53.554;9.964;2023-04-24T07:45:35;13.40;99.90
9965;DHT22;5023;53.554;9.964;2023-04-24T07:50:37;13.40;99.90
9965;DHT22;5023;53.554;9.964;2023-04-24T07:55:41;13.30;99.90
9965;DHT22;5023;53.554;9.964;2023-04-24T08:00:43;13.40;99.90
9965;DHT22;5023;53.554;9.964;2023-04-24T08:05:45;13.50;99.90
9965;DHT22;5023;53.554;9.964;2023-04-24T08:10:48;13.70;99.90
9965;DHT22;5023;53.554;9.964;2023-04-24T08:15:50;13.70;99.90
9965;DHT22;5023;53.554;9.964;2023-04-24T08:20:52;13.80;99.90
9965;DHT22;5023;53.554;9.964;2023-04-24T08:25:56;13.90;99.90
9965;DHT22;5023;53.554;9.964;2023-04-24T08:30:58;13.90;99.90
9965;DHT22;5023;53.554;9.964;2023-04-24T08:36:00;13.90;99.90
9965;DHT22;5023;53.554;9.964;2023-04-24T08:41:04;13.90;99.90
9965;DHT22;5023;53.554;9.964;2023-04-24T08:46:07;13.90;99.90
9965;DHT22;5023;53.554;9.964;2023-04-24T08:51:10;13.90;99.90
9965;DHT22;5023;53.554;9.964;2023-04-24T08:56:14;13.90;99.90
9965;DHT22;5023;53.554;9.964;2023-04-24T09:01:17;13.90;99.90
9965;DHT22;5023;53.554;9.964;2023-04-24T09:06:21;14.00;99.90
9965;DHT22;5023;53.554;9.964;2023-04-24T09:11:25;14.20;99.90
9965;DHT22;5023;53.554;9.964;2023-04-24T09:16:27;14.10;99.90
9965;DHT22;5023;53.554;9.964;2023-04-24T09:21:32;14.30;99.90
9965;DHT22;5023;53.554;9.964;2023-04-24T09:26:36;14.10;99.90
9965;DHT22;5023;53.554;9.964;2023-04-24T09:31:38;14.20;99.90
9965;DHT22;5023;53.554;9.964;2023-04-24T09:36:42;14.20;99.90
9965;DHT22;5023;53.554;9.964;2023-04-24T09:41:46;14.10;99.90
9965;DHT22;5023;53.554;9.964;2023-04-24T09:46:50;13.90;99.90
9965;DHT22;5023;53.554;9.964;2023-04-24T09:52:01;13.90;99.90
9965;DHT22;5023;53.554;9.964;2023-04-24T09:57:07;13.80;99.90
9965;DHT22;5023;53.554;9.964;2023-04-24T10:02:17;13.70;99.90
9965;DHT22;5023;53.554;9.964;2023-04-24T10:07:19;13.70;99.90
9965;DHT22;5023;53.554;9.964;2023-04-24T10:12:23;13.60;99.90
9965;DHT22;5023;53.554;9.964;2023-04-24T10:17:26;13.70;99.90
9965;DHT22;5023;53.554;9.964;2023-04-24T10:22:29;13.70;99.90
9965;DHT22;5023;53.554;9.964;2023-04-24T10:27:33;13.70;99.90
9965;DHT22;5023;53.554;9.964;2023-04-24T10:32:36;13.80;99.90
9965;DHT22;5023;53.554;9.964;2023-04-24T10:37:48;13.70;99.90
9965;DHT22;5023;53.554;9.964;2023-04-24T10:42:53;13.70;99.90
9965;DHT22;5023;53.554;9.964;2023-04-24T10:48:01;13.70;99.90
9965;DHT22;5023;53.554;9.964;2023-04-24T10:53:11;13.60;99.90
9965;DHT22;5023;53.554;9.964;2023-04-24T10:58:15;13.70;99.90
9965;DHT22;5023;53.554;9.964;2023-04-24T11:03:26;13.70;99.90
9965;DHT22;5023;53.554;9.964;2023-04-24T11:08:36;13.90;99.90
9965;DHT22;5023;53.554;9.964;2023-04-24T11:14:02;13.90;99.90
9965;DHT22;5023;53.554;9.964;2023-04-24T11:19:07;13.80;99.90
9965;DHT22;5023;53.554;9.964;2023-04-24T11:24:30;14.00;99.90
9965;DHT22;5023;53.554;9.964;2023-04-24T11:29:42;14.10;99.90
9965;DHT22;5023;53.554;9.964;2023-04-24T11:34:46;14.30;99.90
9965;DHT22;5023;53.554;9.964;2023-04-24T11:39:51;14.40;99.90
9965;DHT22;5023;53.554;9.964;2023-04-24T11:44:55;14.40;99.90
9965;DHT22;5023;53.554;9.964;2023-04-24T11:49:58;14.50;99.90
9965;DHT22;5023;53.554;9.964;2023-04-24T11:55:00;14.50;99.90
9965;DHT22;5023;53.554;9.964;2023-04-24T12:00:04;14.40;99.90
9965;DHT22;5023;53.554;9.964;2023-04-24T12:05:07;14.30;99.90
9965;DHT22;5023;53.554;9.964;2023-04-24T12:10:09;14.40;99.90
9965;DHT22;5023;53.554;9.964;2023-04-24T12:15:12;14.40;99.90
9965;DHT22;5023;53.554;9.964;2023-04-24T12:20:15;14.40;99.90
9965;DHT22;5023;53.554;9.964;2023-04-24T12:25:18;14.30;99.90
9965;DHT22;5023;53.554;9.964;2023-04-24T12:30:26;14.30;99.90
9965;DHT22;5023;53.554;9.964;2023-04-24T12:35:30;14.20;99.90
9965;DHT22;5023;53.554;9.964;2023-04-24T12:40:33;13.90;99.90
9965;DHT22;5023;53.554;9.964;2023-04-24T12:45:37;13.80;99.90
9965;DHT22;5023;53.554;9.964;2023-04-24T12:50:39;13.90;99.90
9965;DHT22;5023;53.554;9.964;2023-04-24T12:55:41;13.80;99.90
9965;DHT22;5023;53.554;9.964;2023-04-24T13:00:44;13.70;99.90
9965;DHT22;5023;53.554;9.964;2023-04-24T13:05:46;13.60;99.90
9965;DHT22;5023;53.554;9.964;2023-04-24T13:10:49;13.60;99.90
9965;DHT22;5023;53.554;9.964;2023-04-24T13:15:52;13.50;99.90
9965;DHT22;5023;53.554;9.964;2023-04-24T13:20:55;13.50;99.90
9965;DHT22;5023;53.554;9.964;2023-04-24T13:25:57;13.50;99.90
9965;DHT22;5023;53.554;9.964;2023-04-24T13:31:00;13.70;99.90
9965;DHT22;5023;53.554;9.964;2023-04-24T13:36:02;13.60;99.90
9965;DHT22;5023;53.554;9.964;2023-04-24T13:41:04;13.50;99.90
9965;DHT22;5023;53.554;9.964;2023-04-24T13:46:08;13.40;99.90
9965;DHT22;5023;53.554;9.964;2023-04-24T13:51:10;13.50;99.90
9965;DHT22;5023;53.554;9.964;2023-04-24T13:56:12;13.50;99.90
9965;DHT22;5023;53.554;9.964;2023-04-24T14:01:16;13.50;99.90
9965;DHT22;5023;53.554;9.964;2023-04-24T14:06:18;13.40;99.90
9965;DHT22;5023;53.554;9.964;2023-04-24T14:11:19;13.50;99.90
9965;DHT22;5023;53.554;9.964;2023-04-24T14:16:23;13.40;99.90
9965;DHT22;5023;53.554;9.964;2023-04-24T14:21:25;13.50;99.90
9965;DHT22;5023;53.554;9.964;2023-04-24T14:26:27;13.50;99.90
9965;DHT22;5023;53.554;9.964;2023-04-24T14:31:30;13.40;99.90
9965;DHT22;5023;53.554;9.964;2023-04-24T14:36:32;13.50;99.90
9965;DHT22;5023;53.554;9.964;2023-04-24T14:41:34;13.20;99.90
9965;DHT22;5023;53.554;9.964;2023-04-24T14:46:39;12.60;99.90
9965;DHT22;5023;53.554;9.964;2023-04-24T14:51:41;12.00;99.90
9965;DHT22;5023;53.554;9.964;2023-04-24T14:56:44;11.70;99.90
9965;DHT22;5023;53.554;9.964;2023-04-24T15:01:47;11.70;99.90
9965;DHT22;5023;53.554;9.964;2023-04-24T15:06:50;11.60;99.90
9965;DHT22;5023;53.554;9.964;2023-04-24T15:11:52;11.30;99.90
9965;DHT22;5023;53.554;9.964;2023-04-24T15:16:55;11.20;99.90
9965;DHT22;5023;53.554;9.964;2023-04-24T15:21:57;11.30;99.90
9965;DHT22;5023;53.554;9.964;2023-04-24T15:26:59;10.90;99.90
9965;DHT22;5023;53.554;9.964;2023-04-24T15:32:03;10.70;99.90
9965;DHT22;5023;53.554;9.964;2023-04-24T15:37:05;10.60;99.90
9965;DHT22;5023;53.554;9.964;2023-04-24T15:42:07;10.40;99.90
9965;DHT22;5023;53.554;9.964;2023-04-24T15:47:10;10.30;99.90
9965;DHT22;5023;53.554;9.964;2023-04-24T15:52:14;10.30;99.90
9965;DHT22;5023;53.554;9.964;2023-04-24T15:57:16;10.10;99.90
9965;DHT22;5023;53.554;9.964;2023-04-24T16:02:20;10.00;99.90
9965;DHT22;5023;53.554;9.964;2023-04-24T16:07:22;9.80;99.90
9965;DHT22;5023;53.554;9.964;2023-04-24T16:12:24;9.70;99.90
9965;DHT22;5023;53.554;9.964;2023-04-24T16:17:28;9.40;99.90
9965;DHT22;5023;53.554;9.964;2023-04-24T16:22:30;9.20;99.90
9965;DHT22;5023;53.554;9.964;2023-04-24T16:27:32;9.10;99.90
9965;DHT22;5023;53.554;9.964;2023-04-24T16:32:36;8.90;99.90
9965;DHT22;5023;53.554;9.964;2023-04-24T16:37:37;8.90;99.90
9965;DHT22;5023;53.554;9.964;2023-04-24T16:42:41;9.00;99.90
9965;DHT22;5023;53.554;9.964;2023-04-24T16:47:44;8.90;99.90
9965;DHT22;5023;53.554;9.964;2023-04-24T16:52:46;8.80;99.90
9965;DHT22;5023;53.554;9.964;2023-04-24T16:57:48;8.90;99.90
9965;DHT22;5023;53.554;9.964;2023-04-24T17:02:51;8.70;99.90
9965;DHT22;5023;53.554;9.964;2023-04-24T17:07:53;8.70;99.90
9965;DHT22;5023;53.554;9.964;2023-04-24T17:12:55;8.70;99.90
9965;DHT22;5023;53.554;9.964;2023-04-24T17:18:01;8.70;99.90
9965;DHT22;5023;53.554;9.964;2023-04-24T17:23:04;8.70;99.90
9965;DHT22;5023;53.554;9.964;2023-04-24T17:28:13;8.80;99.90
9965;DHT22;5023;53.554;9.964;2023-04-24T17:33:17;8.90;99.90
9965;DHT22;5023;53.554;9.964;2023-04-24T17:38:20;8.80;99.90
9965;DHT22;5023;53.554;9.964;2023-04-24T17:43:22;9.00;99.90
9965;DHT22;5023;53.554;9.964;2023-04-24T17:48:26;8.90;99.90
9965;DHT22;5023;53.554;9.964;2023-04-24T17:53:28;8.90;99.90
9965;DHT22;5023;53.554;9.964;2023-04-24T17:58:30;9.00;99.90
9965;DHT22;5023;53.554;9.964;2023-04-24T18:03:35;8.90;99.90
9965;DHT22;5023;53.554;9.964;2023-04-24T18:08:37;8.90;99.90
9965;DHT22;5023;53.554;9.964;2023-04-24T18:13:39;8.90;99.90
9965;DHT22;5023;53.554;9.964;2023-04-24T18:18:43;8.90;99.90
9965;DHT22;5023;53.554;9.964;2023-04-24T18:23:45;8.90;99.90
9965;DHT22;5023;53.554;9.964;2023-04-24T18:28:47;8.90;99.90
9965;DHT22;5023;53.554;9.964;2023-04-24T18:33:50;8.90;99.90
9965;DHT22;5023;53.554;9.964;2023-04-24T18:38:53;8.90;99.90
9965;DHT22;5023;53.554;9.964;2023-04-24T18:43:55;8.90;99.90
9965;DHT22;5023;53.554;9.964;2023-04-24T18:49:00;9.00;99.90
9965;DHT22;5023;53.554;9.964;2023-04-24T18:54:02;8.90;99.90
9965;DHT22;5023;53.554;9.964;2023-04-24T18:59:04;8.80;99.90
9965;DHT22;5023;53.554;9.964;2023-04-24T19:04:07;8.80;99.90
9965;DHT22;5023;53.554;9.964;2023-04-24T19:09:09;8.80;99.90
9965;DHT22;5023;53.554;9.964;2023-04-24T19:14:11;8.80;99.90
9965;DHT22;5023;53.554;9.964;2023-04-24T19:19:15;8.80;99.90
9965;DHT22;5023;53.554;9.964;2023-04-24T19:24:17;8.80;99.90
9965;DHT22;5023;53.554;9.964;2023-04-24T19:29:20;8.80;99.90
9965;DHT22;5023;53.554;9.964;2023-04-24T19:34:24;8.90;99.90
9965;DHT22;5023;53.554;9.964;2023-04-24T19:39:27;8.80;99.90
9965;DHT22;5023;53.554;9.964;2023-04-24T19:44:31;8.90;99.90
9965;DHT22;5023;53.554;9.964;2023-04-24T19:49:35;8.90;99.90
9965;DHT22;5023;53.554;9.964;2023-04-24T19:54:36;8.90;99.90
9965;DHT22;5023;53.554;9.964;2023-04-24T19:59:38;8.80;99.90
9965;DHT22;5023;53.554;9.964;2023-04-24T20:04:42;8.80;99.90
9965;DHT22;5023;53.554;9.964;2023-04-24T20:09:44;8.90;99.90
9965;DHT22;5023;53.554;9.964;2023-04-24T20:14:46;8.80;99.90
9965;DHT22;5023;53.554;9.964;2023-04-24T20:19:49;8.80;99.90
9965;DHT22;5023;53.554;9.964;2023-04-24T20:24:51;8.90;99.90
9965;DHT22;5023;53.554;9.964;2023-04-24T20:29:53;8.80;99.90
9965;DHT22;5023;53.554;9.964;2023-04-24T20:34:57;8.90;99.90
9965;DHT22;5023;53.554;9.964;2023-04-24T20:39:59;8.80;99.90
9965;DHT22;5023;53.554;9.964;2023-04-24T20:45:06;8.80;99.90
9965;DHT22;5023;53.554;9.964;2023-04-24T20:50:10;8.70;99.90
9965;DHT22;5023;53.554;9.964;2023-04-24T20:55:12;8.70;99.90
9965;DHT22;5023;53.554;9.964;2023-04-24T21:00:15;8.70;99.90
9965;DHT22;5023;53.554;9.964;2023-04-24T21:05:20;8.60;99.90
9965;DHT22;5023;53.554;9.964;2023-04-24T21:10:22;8.60;99.90
9965;DHT22;5023;53.554;9.964;2023-04-24T21:15:25;8.70;99.90
9965;DHT22;5023;53.554;9.964;2023-04-24T21:20:37;8.70;99.90
9965;DHT22;5023;53.554;9.964;2023-04-24T21:25:41;8.60;99.90
9965;DHT22;5023;53.554;9.964;2023-04-24T21:30:43;8.60;99.90
9965;DHT22;5023;53.554;9.964;2023-04-24T21:35:46;8.60;99.90
9965;DHT22;5023;53.554;9.964;2023-04-24T21:40:48;8.60;99.90
9965;DHT22;5023;53.554;9.964;2023-04-24T21:45:51;8.60;99.90
9965;DHT22;5023;53.554;9.964;2023-04-24T21:50:54;8.60;99.90
9965;DHT22;5023;53.554;9.964;2023-04-24T21:55:56;8.50;99.90
9965;DHT22;5023;53.554;9.964;2023-04-24T22:00:58;8.50;99.90
9965;DHT22;5023;53.554;9.964;2023-04-24T22:06:02;8.50;99.90
9965;DHT22;5023;53.554;9.964;2023-04-24T22:11:04;8.60;99.90
9965;DHT22;5023;53.554;9.964;2023-04-24T22:16:06;8.60;99.90
9965;DHT22;5023;53.554;9.964;2023-04-24T22:21:10;8.60;99.90
9965;DHT22;5023;53.554;9.964;2023-04-24T22:26:12;8.60;99.90
9965;DHT22;5023;53.554;9.964;2023-04-24T22:31:14;8.60;99.90
9965;DHT22;5023;53.554;9.964;2023-04-24T22:36:17;8.60;99.90
9965;DHT22;5023;53.554;9.964;2023-04-24T22:41:22;8.50;99.90
9965;DHT22;5023;53.554;9.964;2023-04-24T22:46:24;8.60;99.90
9965;DHT22;5023;53.554;9.964;2023-04-24T22:51:27;8.50;99.90
9965;DHT22;5023;53.554;9.964;2023-04-24T22:56:33;8.50;99.90
9965;DHT22;5023;53.554;9.964;2023-04-24T23:01:35;8.60;99.90
9965;DHT22;5023;53.554;9.964;2023-04-24T23:06:38;8.60;99.90
9965;DHT22;5023;53.554;9.964;2023-04-24T23:11:40;8.60;99.90
9965;DHT22;5023;53.554;9.964;2023-04-24T23:16:42;8.50;99.90
9965;DHT22;5023;53.554;9.964;2023-04-24T23:21:47;8.50;99.90
9965;DHT22;5023;53.554;9.964;2023-04-24T23:26:50;8.60;99.90
9965;DHT22;5023;53.554;9.964;2023-04-24T23:31:54;8.50;99.90
9965;DHT22;5023;53.554;9.964;2023-04-24T23:36:57;8.40;99.90
9965;DHT22;5023;53.554;9.964;2023-04-24T23:41:59;8.50;99.90
9965;DHT22;5023;53.554;9.964;2023-04-24T23:47:03;8.40;99.90
9965;DHT22;5023;53.554;9.964;2023-04-24T23:52:06;8.40;99.90
9965;DHT22;5023;53.554;9.964;2023-04-24T23:57:08;8.40;99.90
